Time;durP1;ratioP1;P1;durP2;ratioP2;P2;SDS_P1;SDS_P2;PMS_P1;PMS_P2;Temp;Humidity;BMP_temperature;BMP_pressure;BME280_temperature;BME280_humidity;BME280_pressure;Samples;Min_cycle;Max_cycle;Signal;HPM_P1;HPM_P2
2023/04/26 00:01:10;;;;;;;;;;;;;;;11.99;100.00;99351.78;5065134;28;19917;-79
2023/04/26 00:03:36;;;;;;;;;;;;;;;11.97;100.00;99354.59;5060054;28;19928;-79
2023/04/26 00:06:07;;;;;;;;;;;;;;;11.98;100.00;99350.13;5061563;28;20388;-79
2023/04/26 00:08:33;;;;;;;;;;;;;;;12.01;100.00;99357.75;5062411;28;19959;-79
2023/04/26 00:10:58;;;;;;;;;;;;;;;12.00;100.00;99358.75;5073814;22;19948;-75
2023/04/26 00:13:24;;;;;;;;;;;;;;;12.03;100.00;99353.97;5059248;28;19991;-76
2023/04/26 00:15:49;;;;;;;;;;;;;;;12.07;100.00;99360.63;5061898;28;19920;-78
2023/04/26 00:18:15;;;;;;;;;;;;;;;12.11;100.00;99350.53;5061094;28;19921;-78
2023/04/26 00:20:41;;;;;;;;;;;;;;;12.08;100.00;99356.97;5062032;28;19920;-77
2023/04/26 00:23:09;;;;;;;;;;;;;;;11.83;100.00;99355.19;5063244;28;19927;-78
2023/04/26 00:25:34;;;;;;;;;;;;;;;11.74;100.00;99351.63;5060325;28;20345;-78
2023/04/26 00:28:00;;;;;;;;;;;;;;;11.74;100.00;99351.63;5061139;28;19968;-77
2023/04/26 00:30:26;;;;;;;;;;;;;;;11.75;100.00;99348.00;5058591;28;19941;-77
2023/04/26 00:32:51;;;;;;;;;;;;;;;11.80;100.00;99358.13;5059110;28;19928;-76
2023/04/26 00:35:17;;;;;;;;;;;;;;;11.80;100.00;99358.94;5063186;28;20383;-78
2023/04/26 00:37:42;;;;;;;;;;;;;;;11.68;100.00;99354.88;5060423;28;19928;-78
2023/04/26 00:40:08;;;;;;;;;;;;;;;11.62;100.00;99355.47;5065787;28;20003;-79
2023/04/26 00:42:33;;;;;;;;;;;;;;;11.61;100.00;99356.47;5061266;28;20726;-77
2023/04/26 00:44:58;;;;;;;;;;;;;;;11.64;100.00;99358.81;5043858;28;20316;-79
2023/04/26 00:47:24;;;;;;;;;;;;;;;11.66;100.00;99362.13;5058702;28;19920;-78
2023/04/26 00:49:50;;;;;;;;;;;;;;;11.69;100.00;99359.16;5059983;28;20614;-79
2023/04/26 00:52:15;;;;;;;;;;;;;;;11.69;100.00;99366.28;5058528;28;19921;-79
2023/04/26 00:54:41;;;;;;;;;;;;;;;11.59;100.00;99354.97;5061067;28;20345;-76
2023/04/26 00:57:08;;;;;;;;;;;;;;;11.44;100.00;99362.59;5065937;28;19921;-76
2023/04/26 00:59:35;;;;;;;;;;;;;;;11.39;100.00;99364.88;5055938;28;20032;-77
2023/04/26 01:02:03;;;;;;;;;;;;;;;11.35;100.00;99366.16;5058991;28;19924;-77
2023/04/26 01:04:29;;;;;;;;;;;;;;;11.18;100.00;99367.00;5059694;28;20333;-77
2023/04/26 01:06:55;;;;;;;;;;;;;;;11.12;100.00;99368.44;5058567;28;20027;-78
2023/04/26 01:09:21;;;;;;;;;;;;;;;10.99;100.00;99365.34;5061499;28;19921;-78
2023/04/26 01:11:47;;;;;;;;;;;;;;;10.96;100.00;99369.09;5074270;28;20351;-78
2023/04/26 01:14:13;;;;;;;;;;;;;;;10.84;100.00;99370.28;5061457;28;20003;-78
2023/04/26 01:16:39;;;;;;;;;;;;;;;10.81;100.00;99370.59;5061663;28;19921;-78
2023/04/26 01:19:11;;;;;;;;;;;;;;;10.73;100.00;99373.13;5059918;28;20292;-77
2023/04/26 01:21:38;;;;;;;;;;;;;;;10.62;100.00;99375.97;5060986;28;19927;-78
2023/04/26 01:24:03;;;;;;;;;;;;;;;10.46;100.00;99375.78;5058694;28;19921;-77
2023/04/26 01:26:29;;;;;;;;;;;;;;;10.43;100.00;99370.78;5057261;28;20024;-77
2023/04/26 01:28:54;;;;;;;;;;;;;;;10.46;100.00;99381.91;5061668;28;19928;-76
2023/04/26 01:31:20;;;;;;;;;;;;;;;10.40;100.00;99371.94;5059357;28;20389;-78
2023/04/26 01:33:45;;;;;;;;;;;;;;;10.34;100.00;99376.97;5060555;28;19974;-77
2023/04/26 01:36:10;;;;;;;;;;;;;;;10.36;100.00;99377.66;5061326;28;19921;-77
2023/04/26 01:38:36;;;;;;;;;;;;;;;10.25;100.00;99376.00;5058768;28;19974;-77
2023/04/26 01:41:01;;;;;;;;;;;;;;;10.12;100.00;99371.06;5065918;28;20265;-75
2023/04/26 01:43:29;;;;;;;;;;;;;;;10.15;100.00;99376.03;5063116;28;19921;-76
2023/04/26 01:45:56;;;;;;;;;;;;;;;10.17;100.00;99368.00;5057217;28;19932;-75
2023/04/26 01:48:30;;;;;;;;;;;;;;;10.21;100.00;99370.22;5059930;28;19920;-76
2023/04/26 01:50:55;;;;;;;;;;;;;;;9.99;100.00;99373.19;5062141;28;19924;-77
2023/04/26 01:53:20;;;;;;;;;;;;;;;9.85;100.00;99366.53;5062856;28;20295;-76
2023/04/26 01:55:46;;;;;;;;;;;;;;;9.78;100.00;99369.88;5063730;28;19920;-76
2023/04/26 01:58:11;;;;;;;;;;;;;;;9.65;100.00;99379.91;5062081;28;19973;-76
2023/04/26 02:00:37;;;;;;;;;;;;;;;9.74;100.00;99373.78;5060908;28;20106;-76
2023/04/26 02:03:02;;;;;;;;;;;;;;;9.75;100.00;99380.72;5081503;28;19956;-76
2023/04/26 02:05:28;;;;;;;;;;;;;;;9.80;100.00;99378.50;5057239;28;19927;-75
2023/04/26 02:07:54;;;;;;;;;;;;;;;9.83;100.00;99378.22;5080269;28;19920;-74
2023/04/26 02:10:19;;;;;;;;;;;;;;;9.88;100.00;99378.63;5066015;28;19943;-78
2023/04/26 02:12:44;;;;;;;;;;;;;;;9.90;100.00;99384.56;5065590;28;19927;-77
2023/04/26 02:15:10;;;;;;;;;;;;;;;9.86;100.00;99375.28;5066630;28;19939;-77
2023/04/26 02:17:36;;;;;;;;;;;;;;;9.87;100.00;99374.31;5062804;28;20278;-77
2023/04/26 02:20:02;;;;;;;;;;;;;;;9.83;100.00;99375.59;5062776;28;19990;-76
2023/04/26 02:22:28;;;;;;;;;;;;;;;9.84;100.00;99374.59;5077849;28;19921;-76
2023/04/26 02:24:54;;;;;;;;;;;;;;;9.75;100.00;99384.19;5060144;28;20407;-77
2023/04/26 02:27:26;;;;;;;;;;;;;;;9.66;100.00;99397.41;5062762;28;19927;-76
2023/04/26 02:29:53;;;;;;;;;;;;;;;9.44;100.00;99394.06;5065093;28;19920;-77
2023/04/26 02:32:18;;;;;;;;;;;;;;;9.50;100.00;99397.09;5063115;28;19946;-76
2023/04/26 02:34:43;;;;;;;;;;;;;;;9.44;100.00;99399.34;5062339;28;19952;-77
2023/04/26 02:37:09;;;;;;;;;;;;;;;9.32;100.00;99400.44;5061858;28;19927;-77
2023/04/26 02:39:34;;;;;;;;;;;;;;;9.25;100.00;99404.59;5063713;28;19935;-77
2023/04/26 02:42:00;;;;;;;;;;;;;;;9.17;100.00;99407.09;5077014;28;19917;-77
2023/04/26 02:44:29;;;;;;;;;;;;;;;9.20;100.00;99404.19;5062044;28;19972;-77
2023/04/26 02:46:55;;;;;;;;;;;;;;;9.17;100.00;99414.16;5078856;28;20325;-77
2023/04/26 02:49:21;;;;;;;;;;;;;;;9.19;100.00;99410.41;5063441;28;20014;-77
2023/04/26 02:51:46;;;;;;;;;;;;;;;9.04;100.00;99411.78;5068134;28;20395;-76
2023/04/26 02:54:12;;;;;;;;;;;;;;;9.12;100.00;99411.94;5060762;28;19973;-76
2023/04/26 02:56:37;;;;;;;;;;;;;;;9.08;100.00;99413.16;5080794;28;20285;-77
2023/04/26 02:59:02;;;;;;;;;;;;;;;9.04;100.00;99417.06;5066445;28;19928;-77
2023/04/26 03:01:28;;;;;;;;;;;;;;;9.02;100.00;99416.34;5076895;28;19920;-77
2023/04/26 03:03:53;;;;;;;;;;;;;;;8.82;100.00;99417.28;5064220;28;19994;-77
2023/04/26 03:06:18;;;;;;;;;;;;;;;8.76;100.00;99415.19;5077576;28;19920;-77
2023/04/26 03:08:44;;;;;;;;;;;;;;;8.86;100.00;99418.69;5061982;28;20001;-77
2023/04/26 03:11:10;;;;;;;;;;;;;;;8.86;100.00;99410.78;5079139;28;19956;-75
2023/04/26 03:13:35;;;;;;;;;;;;;;;8.84;100.00;99415.34;5059320;28;19968;-77
2023/04/26 03:16:01;;;;;;;;;;;;;;;8.72;100.00;99406.72;5080045;28;20014;-78
2023/04/26 03:18:26;;;;;;;;;;;;;;;8.62;100.00;99411.97;5075606;28;19927;-76
2023/04/26 03:20:51;;;;;;;;;;;;;;;8.72;100.00;99413.81;5060396;28;19974;-78
2023/04/26 03:23:17;;;;;;;;;;;;;;;8.59;100.00;99417.50;5064645;28;19959;-76
2023/04/26 03:25:42;;;;;;;;;;;;;;;8.52;100.00;99411.13;5060895;28;19920;-76
2023/04/26 03:28:08;;;;;;;;;;;;;;;8.35;100.00;99417.00;5078164;28;19926;-77
2023/04/26 03:30:34;;;;;;;;;;;;;;;8.29;100.00;99420.13;5066867;28;19968;-77
2023/04/26 03:32:59;;;;;;;;;;;;;;;8.19;100.00;99421.84;5060575;28;19928;-74
2023/04/26 03:35:25;;;;;;;;;;;;;;;8.11;100.00;99424.31;5064545;28;19943;-76
2023/04/26 03:37:50;;;;;;;;;;;;;;;7.94;100.00;99430.16;5060729;28;20411;-76
2023/04/26 03:40:16;;;;;;;;;;;;;;;8.06;100.00;99416.00;5060057;28;19964;-76
2023/04/26 03:42:43;;;;;;;;;;;;;;;8.01;100.00;99426.06;5069946;28;20196;-76
2023/04/26 03:45:09;;;;;;;;;;;;;;;8.14;100.00;99421.41;5061358;28;19921;-77
2023/04/26 03:47:34;;;;;;;;;;;;;;;8.31;100.00;99423.47;5060943;28;19944;-77
2023/04/26 03:50:00;;;;;;;;;;;;;;;8.27;100.00;99422.03;5079089;28;20392;-77
2023/04/26 03:52:25;;;;;;;;;;;;;;;8.34;100.00;99420.59;5060655;28;19932;-76
2023/04/26 03:54:51;;;;;;;;;;;;;;;8.30;100.00;99427.09;5062998;28;19924;-77
2023/04/26 03:57:16;;;;;;;;;;;;;;;8.29;100.00;99425.38;5072678;28;19921;-76
2023/04/26 03:59:41;;;;;;;;;;;;;;;8.22;100.00;99418.97;5065719;28;19920;-77
2023/04/26 04:02:07;;;;;;;;;;;;;;;8.27;100.00;99432.56;5061701;28;19921;-78
2023/04/26 04:04:34;;;;;;;;;;;;;;;8.31;100.00;99428.72;5042518;28;20308;-77
2023/04/26 04:06:59;;;;;;;;;;;;;;;8.30;100.00;99437.59;5059761;28;20392;-77
2023/04/26 04:09:25;;;;;;;;;;;;;;;8.40;100.00;99432.38;5063465;28;19921;-78
2023/04/26 04:11:51;;;;;;;;;;;;;;;8.41;100.00;99429.63;5059019;28;19931;-79
2023/04/26 04:14:16;;;;;;;;;;;;;;;8.41;100.00;99434.88;5061801;28;19927;-77
2023/04/26 04:16:42;;;;;;;;;;;;;;;8.46;100.00;99448.47;5071369;28;20439;-76
2023/04/26 04:19:07;;;;;;;;;;;;;;;8.46;100.00;99437.94;5059106;28;19964;-77
2023/04/26 04:21:33;;;;;;;;;;;;;;;8.52;100.00;99440.03;5076436;28;19967;-77
2023/04/26 04:23:58;;;;;;;;;;;;;;;8.56;100.00;99437.97;5062592;28;19925;-77
2023/04/26 04:26:24;;;;;;;;;;;;;;;8.48;100.00;99446.50;5059360;28;20307;-77
2023/04/26 04:28:50;;;;;;;;;;;;;;;8.41;100.00;99449.81;5079107;28;20407;-77
2023/04/26 04:31:16;;;;;;;;;;;;;;;8.41;100.00;99461.16;5076673;28;19921;-75
2023/04/26 04:33:41;;;;;;;;;;;;;;;8.41;100.00;99461.16;5049524;28;20053;-77
2023/04/26 04:36:08;;;;;;;;;;;;;;;8.41;100.00;99460.34;5061570;28;19952;-76
2023/04/26 04:38:34;;;;;;;;;;;;;;;8.23;100.00;99462.72;5054665;28;19924;-76
2023/04/26 04:41:03;;;;;;;;;;;;;;;8.21;100.00;99459.38;5061609;28;20396;-76
2023/04/26 04:43:28;;;;;;;;;;;;;;;8.37;100.00;99465.00;5060191;28;19920;-77
2023/04/26 04:45:54;;;;;;;;;;;;;;;8.36;100.00;99466.00;5057305;28;20389;-78
2023/04/26 04:48:20;;;;;;;;;;;;;;;8.37;100.00;99470.25;5061276;28;19925;-77
2023/04/26 04:50:45;;;;;;;;;;;;;;;8.42;100.00;99468.09;5074621;28;19921;-80
2023/04/26 04:53:11;;;;;;;;;;;;;;;8.28;100.00;99470.19;5060013;28;20350;-75
2023/04/26 04:55:37;;;;;;;;;;;;;;;8.23;100.00;99467.97;5056799;28;19928;-76
2023/04/26 04:58:02;;;;;;;;;;;;;;;8.11;100.00;99469.00;5056950;28;19925;-78
2023/04/26 05:00:29;;;;;;;;;;;;;;;8.24;100.00;99469.63;5066122;28;19921;-78
2023/04/26 05:03:01;;;;;;;;;;;;;;;8.35;100.00;99474.84;5066151;28;20380;-79
2023/04/26 05:05:27;;;;;;;;;;;;;;;8.31;100.00;99478.66;5074747;28;19921;-79
2023/04/26 05:07:52;;;;;;;;;;;;;;;8.43;100.00;99485.53;5060692;28;19924;-82
2023/04/26 05:10:18;;;;;;;;;;;;;;;8.42;100.00;99494.41;5061767;28;20502;-83
2023/04/26 05:12:43;;;;;;;;;;;;;;;8.27;100.00;99487.75;5074730;28;19962;-82
2023/04/26 05:15:09;;;;;;;;;;;;;;;8.16;100.00;99498.34;5057197;28;20013;-79
2023/04/26 05:17:34;;;;;;;;;;;;;;;8.00;100.00;99497.97;5060368;28;19929;-80
2023/04/26 05:20:10;;;;;;;;;;;;;;;8.13;100.00;99498.59;5058891;28;20376;-80
2023/04/26 05:22:35;;;;;;;;;;;;;;;8.17;100.00;99500.03;5063156;28;19929;-79
2023/04/26 05:25:03;;;;;;;;;;;;;;;8.14;100.00;99506.34;5059089;28;19952;-80
2023/04/26 05:27:28;;;;;;;;;;;;;;;8.18;100.00;99501.69;5057564;28;19924;-81
2023/04/26 05:30:13;;;;;;;;;;;;;;;8.07;100.00;99509.66;5050323;28;19947;-79
2023/04/26 05:33:05;;;;;;;;;;;;;;;8.21;100.00;99511.94;5047463;28;19929;-79
2023/04/26 05:35:40;;;;;;;;;;;;;;;8.44;100.00;99512.66;5076059;28;19936;-79
2023/04/26 05:38:06;;;;;;;;;;;;;;;8.55;100.00;99521.28;5065253;28;19924;-80
2023/04/26 05:40:32;;;;;;;;;;;;;;;8.72;100.00;99521.66;5058141;28;19944;-80
2023/04/26 05:42:57;;;;;;;;;;;;;;;8.57;100.00;99524.63;5072872;28;20300;-80
2023/04/26 05:45:24;;;;;;;;;;;;;;;8.50;100.00;99528.75;5074203;28;19924;-79
2023/04/26 05:47:50;;;;;;;;;;;;;;;8.50;100.00;99536.63;5058957;28;20436;-80
2023/04/26 05:50:16;;;;;;;;;;;;;;;8.72;100.00;99537.44;5054997;28;19944;-80
2023/04/26 05:52:41;;;;;;;;;;;;;;;8.84;100.00;99536.38;5058701;28;19925;-82
2023/04/26 05:55:07;;;;;;;;;;;;;;;9.04;100.00;99538.13;5077282;28;20383;-81
2023/04/26 05:57:33;;;;;;;;;;;;;;;9.06;100.00;99536.19;5076191;28;19921;-77
2023/04/26 05:59:58;;;;;;;;;;;;;;;9.09;100.00;99535.91;5073084;28;19968;-83
2023/04/26 06:02:24;;;;;;;;;;;;;;;9.05;100.00;99539.78;5059291;28;19983;-82
2023/04/26 06:04:50;;;;;;;;;;;;;;;9.03;100.00;99541.72;5072385;28;19925;-81
2023/04/26 06:07:16;;;;;;;;;;;;;;;9.11;100.00;99549.78;5074567;28;19931;-81
2023/04/26 06:09:45;;;;;;;;;;;;;;;9.25;100.00;99536.25;5061107;28;20555;-80
2023/04/26 06:12:10;;;;;;;;;;;;;;;9.36;100.00;99544.06;5051420;28;20063;-80
2023/04/26 06:14:39;;;;;;;;;;;;;;;9.49;100.00;99542.94;5063952;28;20396;-80
2023/04/26 06:17:08;;;;;;;;;;;;;;;9.55;100.00;99547.66;5075420;28;20007;-80
2023/04/26 06:19:34;;;;;;;;;;;;;;;9.74;100.00;99547.69;5061552;28;20009;-80
2023/04/26 06:21:59;;;;;;;;;;;;;;;9.88;100.00;99549.94;5077736;28;20391;-80
2023/04/26 06:24:25;;;;;;;;;;;;;;;10.02;100.00;99553.94;5059676;28;19971;-80
2023/04/26 06:26:50;;;;;;;;;;;;;;;9.98;100.00;99553.41;5062290;28;20717;-80
2023/04/26 06:29:16;;;;;;;;;;;;;;;10.11;100.00;99551.31;5057928;28;19928;-80
2023/04/26 06:31:42;;;;;;;;;;;;;;;10.15;100.00;99551.84;5055283;28;19927;-81
2023/04/26 06:34:08;;;;;;;;;;;;;;;10.21;100.00;99557.44;5058963;28;20300;-81
2023/04/26 06:36:34;;;;;;;;;;;;;;;10.10;100.00;99557.56;5078651;28;20304;-80
2023/04/26 06:38:59;;;;;;;;;;;;;;;10.25;100.00;99558.81;5063689;28;19921;-81
2023/04/26 06:41:25;;;;;;;;;;;;;;;10.36;100.00;99554.38;5058606;28;19929;-80
2023/04/26 06:43:51;;;;;;;;;;;;;;;10.43;100.00;99560.72;5058698;28;19927;-79
2023/04/26 06:46:18;;;;;;;;;;;;;;;10.42;100.00;99559.09;5057296;28;19921;-81
2023/04/26 06:48:51;;;;;;;;;;;;;;;10.61;100.00;99559.03;5064986;28;19931;-80
2023/04/26 06:51:17;;;;;;;;;;;;;;;10.75;100.00;99555.94;5062295;28;20388;-81
2023/04/26 06:53:42;;;;;;;;;;;;;;;10.87;100.00;99554.78;5044856;28;19967;-82
2023/04/26 06:56:07;;;;;;;;;;;;;;;11.05;100.00;99560.16;5062713;28;19925;-82
2023/04/26 06:58:32;;;;;;;;;;;;;;;11.19;100.00;99564.13;5057845;28;19925;-81
2023/04/26 07:00:58;;;;;;;;;;;;;;;11.28;100.00;99557.94;5058479;28;19925;-81
2023/04/26 07:03:24;;;;;;;;;;;;;;;11.39;100.00;99561.22;5065201;28;19931;-80
2023/04/26 07:05:49;;;;;;;;;;;;;;;11.51;100.00;99567.13;5062899;28;19970;-81
2023/04/26 07:08:14;;;;;;;;;;;;;;;11.49;100.00;99558.50;5060298;28;19921;-82
2023/04/26 07:10:40;;;;;;;;;;;;;;;11.43;100.00;99556.47;5062170;28;19921;-82
2023/04/26 07:13:05;;;;;;;;;;;;;;;11.44;100.00;99558.13;5061742;28;19927;-81
2023/04/26 07:15:31;;;;;;;;;;;;;;;11.58;100.00;99560.28;5057933;28;19921;-82
2023/04/26 07:17:57;;;;;;;;;;;;;;;11.62;100.00;99561.63;5061442;28;19920;-82
2023/04/26 07:20:23;;;;;;;;;;;;;;;11.76;100.00;99565.63;5060006;28;20186;-81
2023/04/26 07:22:48;;;;;;;;;;;;;;;11.84;100.00;99561.22;5063897;28;19928;-82
2023/04/26 07:25:14;;;;;;;;;;;;;;;12.03;100.00;99567.34;5060012;28;19955;-80
2023/04/26 07:27:39;;;;;;;;;;;;;;;12.04;100.00;99566.38;5061648;28;19921;-82
2023/04/26 07:30:05;;;;;;;;;;;;;;;11.98;100.00;99566.97;5062666;28;19933;-80
2023/04/26 07:32:30;;;;;;;;;;;;;;;12.08;100.00;99570.34;5073709;28;19928;-81
2023/04/26 07:34:56;;;;;;;;;;;;;;;12.26;100.00;99560.59;5064737;28;20039;-81
2023/04/26 07:37:21;;;;;;;;;;;;;;;12.26;100.00;99560.59;5062445;28;20348;-82
2023/04/26 07:39:46;;;;;;;;;;;;;;;12.37;100.00;99563.00;5062627;28;19921;-81
2023/04/26 07:42:12;;;;;;;;;;;;;;;12.57;100.00;99553.06;5064999;28;19957;-81
2023/04/26 07:44:37;;;;;;;;;;;;;;;12.76;100.00;99557.31;5057760;28;19920;-82
2023/04/26 07:47:02;;;;;;;;;;;;;;;12.83;100.00;99559.19;5064033;28;20327;-81
2023/04/26 07:49:28;;;;;;;;;;;;;;;12.98;100.00;99554.13;5061690;28;19984;-81
2023/04/26 07:51:55;;;;;;;;;;;;;;;12.99;100.00;99547.84;5057532;28;19936;-82
2023/04/26 07:54:20;;;;;;;;;;;;;;;13.01;100.00;99551.19;5063191;28;20375;-79
2023/04/26 07:56:45;;;;;;;;;;;;;;;13.09;100.00;99548.53;5057927;28;19929;-82
2023/04/26 07:59:11;;;;;;;;;;;;;;;13.00;100.00;99552.16;5064647;28;19979;-80
2023/04/26 08:01:36;;;;;;;;;;;;;;;13.06;100.00;99548.88;5057340;28;19928;-80
2023/04/26 08:04:03;;;;;;;;;;;;;;;13.23;100.00;99553.28;5062446;28;20404;-81
2023/04/26 08:06:28;;;;;;;;;;;;;;;13.22;100.00;99548.97;5063525;28;19920;-80
2023/04/26 08:08:54;;;;;;;;;;;;;;;13.32;100.00;99560.25;5060670;28;19927;-79
2023/04/26 08:11:19;;;;;;;;;;;;;;;13.40;100.00;99567.44;5060810;28;20061;-79
2023/04/26 08:13:45;;;;;;;;;;;;;;;13.43;100.00;99564.47;5063202;28;19946;-81
2023/04/26 08:16:10;;;;;;;;;;;;;;;13.49;100.00;99566.44;5059989;28;19920;-80
2023/04/26 08:18:36;;;;;;;;;;;;;;;13.59;100.00;99558.38;5060946;28;19924;-82
2023/04/26 08:21:01;;;;;;;;;;;;;;;13.68;100.00;99574.13;5057738;28;20415;-81
2023/04/26 08:23:27;;;;;;;;;;;;;;;13.63;100.00;99573.78;5056876;28;19925;-81
2023/04/26 08:25:52;;;;;;;;;;;;;;;13.67;100.00;99568.97;5060399;28;19968;-80
2023/04/26 08:28:18;;;;;;;;;;;;;;;13.81;100.00;99566.53;5059789;28;20335;-81
2023/04/26 08:30:43;;;;;;;;;;;;;;;13.87;100.00;99570.38;5063744;28;20300;-81
2023/04/26 08:33:08;;;;;;;;;;;;;;;14.05;100.00;99562.25;5044418;28;19982;-81
2023/04/26 08:35:34;;;;;;;;;;;;;;;14.17;98.42;99568.91;5065988;28;20283;-81
2023/04/26 08:37:59;;;;;;;;;;;;;;;14.33;94.88;99563.59;5061481;28;19920;-81
2023/04/26 08:40:25;;;;;;;;;;;;;;;14.38;93.46;99557.81;5043182;28;19925;-80
2023/04/26 08:42:52;;;;;;;;;;;;;;;14.48;93.32;99558.50;5064515;28;19928;-81
2023/04/26 08:45:18;;;;;;;;;;;;;;;14.52;92.63;99554.50;5059649;28;19921;-81
2023/04/26 08:47:46;;;;;;;;;;;;;;;14.53;91.04;99561.47;5060775;28;19920;-81
2023/04/26 08:50:13;;;;;;;;;;;;;;;14.55;90.33;99549.66;5058291;28;19964;-81
2023/04/26 08:52:40;;;;;;;;;;;;;;;14.61;89.59;99558.78;5061266;28;19921;-80
2023/04/26 08:55:06;;;;;;;;;;;;;;;14.67;90.22;99550.97;5062619;28;19928;-81
2023/04/26 08:57:32;;;;;;;;;;;;;;;14.79;91.15;99562.06;5061701;28;19928;-81
2023/04/26 08:59:57;;;;;;;;;;;;;;;14.95;91.41;99555.91;5060369;28;19921;-81
2023/04/26 09:02:23;;;;;;;;;;;;;;;15.05;87.63;99557.38;5065006;28;19928;-81
2023/04/26 09:04:49;;;;;;;;;;;;;;;15.16;86.69;99553.50;5058276;28;19921;-81
2023/04/26 09:07:23;;;;;;;;;;;;;;;15.22;84.73;99559.94;5055544;28;19929;-82
2023/04/26 09:09:52;;;;;;;;;;;;;;;15.22;82.53;99551.97;5057870;28;20013;-82
2023/04/26 09:12:20;;;;;;;;;;;;;;;15.30;81.73;99559.94;5059301;28;19920;-81
2023/04/26 09:14:47;;;;;;;;;;;;;;;15.34;81.36;99561.22;5059080;28;19959;-83
2023/04/26 09:17:25;;;;;;;;;;;;;;;15.42;81.19;99558.53;5062406;28;19956;-81
2023/04/26 09:19:51;;;;;;;;;;;;;;;15.52;69.40;99552.03;5054751;28;19921;-81
2023/04/26 09:22:26;;;;;;;;;;;;;;;15.51;68.37;99552.16;5058919;28;20391;-81
2023/04/26 09:24:52;;;;;;;;;;;;;;;15.56;68.49;99549.84;5058245;28;19924;-81
2023/04/26 09:27:18;;;;;;;;;;;;;;;15.68;66.38;99550.28;5056314;28;19928;-79
2023/04/26 09:30:19;;;;;;;;;;;;;;;15.81;66.17;99551.38;5061251;28;19920;-82
2023/04/26 09:32:55;;;;;;;;;;;;;;;15.94;61.57;99554.28;5017513;28;20018;-81
2023/04/26 09:35:28;;;;;;;;;;;;;;;16.03;60.21;99546.22;5017297;28;19921;-80
2023/04/26 09:38:01;;;;;;;;;;;;;;;16.03;61.27;99543.56;5017077;28;20723;-82
2023/04/26 09:40:29;;;;;;;;;;;;;;;16.06;60.24;99544.03;5018554;28;20006;-81
2023/04/26 09:42:56;;;;;;;;;;;;;;;16.05;60.11;99536.22;5019243;28;20012;-81
2023/04/26 09:45:22;;;;;;;;;;;;;;;16.11;61.21;99543.50;5017756;28;19960;-82
2023/04/26 09:47:48;;;;;;;;;;;;;;;16.15;61.08;99539.47;5017511;28;19927;-82
2023/04/26 09:50:13;;;;;;;;;;;;;;;16.21;59.82;99544.06;5019933;28;19925;-81
2023/04/26 09:52:42;;;;;;;;;;;;;;;16.23;60.31;99526.09;5015959;28;19985;-81
2023/04/26 09:55:07;;;;;;;;;;;;;;;16.30;58.90;99529.72;5019740;28;19960;-81
2023/04/26 09:57:42;;;;;;;;;;;;;;;16.31;55.42;99526.03;5016098;28;20011;-82
2023/04/26 10:00:11;;;;;;;;;;;;;;;16.37;56.29;99526.13;5018241;28;19922;-81
2023/04/26 10:02:37;;;;;;;;;;;;;;;16.48;55.73;99524.88;5021682;28;20334;-82
2023/04/26 10:05:03;;;;;;;;;;;;;;;16.56;57.81;99532.78;5014147;28;20023;-82
2023/04/26 10:07:29;;;;;;;;;;;;;;;16.59;57.58;99519.13;5052354;28;19920;-82
2023/04/26 10:09:56;;;;;;;;;;;;;;;16.58;54.98;99520.09;5060881;28;20000;-82
2023/04/26 10:12:21;;;;;;;;;;;;;;;16.58;53.58;99521.94;5058378;28;19920;-82
2023/04/26 10:14:47;;;;;;;;;;;;;;;16.51;53.51;99513.84;5059683;28;20026;-82
2023/04/26 10:17:12;;;;;;;;;;;;;;;16.52;54.05;99520.84;5061711;28;19921;-82
2023/04/26 10:19:39;;;;;;;;;;;;;;;16.52;53.49;99515.50;5060611;28;19928;-81
2023/04/26 10:22:07;;;;;;;;;;;;;;;16.56;51.93;99511.47;5064096;28;19935;-82
2023/04/26 10:24:33;;;;;;;;;;;;;;;16.64;50.72;99508.75;5071451;28;19927;-81
2023/04/26 10:27:00;;;;;;;;;;;;;;;16.62;46.76;99518.75;5079728;28;19958;-82
2023/04/26 10:29:45;;;;;;;;;;;;;;;16.69;46.72;99506.38;5080122;28;19916;-82
2023/04/26 10:32:15;;;;;;;;;;;;;;;16.79;47.50;99512.25;5078177;28;19925;-82
2023/04/26 10:34:40;;;;;;;;;;;;;;;16.84;47.55;99508.22;5063387;28;19916;-81
2023/04/26 10:37:10;;;;;;;;;;;;;;;16.91;46.26;99507.28;5065259;28;19928;-80
2023/04/26 10:39:35;;;;;;;;;;;;;;;16.96;45.26;99498.75;5068121;28;20007;-82
2023/04/26 10:42:23;;;;;;;;;;;;;;;16.98;44.37;99499.38;5060513;28;19971;-82
2023/04/26 10:44:58;;;;;;;;;;;;;;;17.04;45.92;99493.31;5058996;28;19976;-82
2023/04/26 10:47:26;;;;;;;;;;;;;;;17.12;46.46;99495.88;5063477;28;19928;-82
2023/04/26 10:49:52;;;;;;;;;;;;;;;17.21;47.83;99478.75;5063621;28;19925;-82
2023/04/26 10:52:22;;;;;;;;;;;;;;;17.27;48.48;99480.66;5061611;28;19928;-81
2023/04/26 10:54:51;;;;;;;;;;;;;;;17.29;48.05;99481.31;5080398;28;20372;-82
2023/04/26 10:57:17;;;;;;;;;;;;;;;17.36;48.21;99470.72;5065504;28;19921;-82
2023/04/26 11:00:15;;;;;;;;;;;;;;;17.45;45.96;99472.25;5062396;28;19924;-82
2023/04/26 11:02:54;;;;;;;;;;;;;;;17.49;41.46;99466.38;5064324;28;19921;-82
2023/04/26 11:05:41;;;;;;;;;;;;;;;17.53;40.50;99456.97;5059228;28;19921;-81
2023/04/26 11:08:12;;;;;;;;;;;;;;;17.61;35.74;99466.72;5061668;28;19920;-82
2023/04/26 11:10:38;;;;;;;;;;;;;;;17.58;37.19;99465.22;5064482;28;19916;-82
2023/04/26 11:13:03;;;;;;;;;;;;;;;17.52;39.97;99454.47;5062298;28;19931;-82
2023/04/26 11:15:31;;;;;;;;;;;;;;;17.57;40.05;99452.06;5064606;28;19921;-81
2023/04/26 11:17:57;;;;;;;;;;;;;;;17.66;41.76;99452.81;5063429;28;19927;-81
2023/04/26 11:20:27;;;;;;;;;;;;;;;17.76;42.14;99445.31;5059470;28;19920;-83
2023/04/26 11:22:52;;;;;;;;;;;;;;;17.75;40.83;99444.47;5064687;28;19930;-83
2023/04/26 11:25:18;;;;;;;;;;;;;;;17.71;39.64;99432.53;5061740;28;20061;-80
2023/04/26 11:27:44;;;;;;;;;;;;;;;17.77;39.95;99431.78;5063326;28;20299;-79
2023/04/26 11:30:13;;;;;;;;;;;;;;;17.84;41.85;99421.16;5058117;28;19924;-82
2023/04/26 11:32:39;;;;;;;;;;;;;;;17.99;39.66;99430.72;5062405;28;19931;-80
2023/04/26 11:35:04;;;;;;;;;;;;;;;18.11;38.24;99425.69;5060017;28;19921;-79
2023/04/26 11:37:30;;;;;;;;;;;;;;;18.16;37.70;99420.56;5061558;28;19982;-83
2023/04/26 11:39:56;;;;;;;;;;;;;;;18.21;37.61;99412.81;5061258;28;19924;-87
2023/04/26 11:42:23;;;;;;;;;;;;;;;18.30;38.99;99405.47;5056924;28;19948;-85
2023/04/26 11:44:50;;;;;;;;;;;;;;;18.41;39.03;99403.09;5063599;28;20119;-79
2023/04/26 11:47:16;;;;;;;;;;;;;;;18.55;39.50;99408.53;5060044;28;20373;-82
2023/04/26 11:49:41;;;;;;;;;;;;;;;18.65;40.14;99395.63;5058433;28;19928;-85
2023/04/26 11:52:07;;;;;;;;;;;;;;;18.79;39.53;99400.03;5064222;28;19927;-85
2023/04/26 11:54:33;;;;;;;;;;;;;;;18.87;38.97;99391.81;5058641;28;20343;-85
2023/04/26 11:56:59;;;;;;;;;;;;;;;18.99;39.47;99392.88;5063408;28;20004;-85
2023/04/26 11:59:28;;;;;;;;;;;;;;;19.10;38.29;99391.47;5060055;28;19967;-83
2023/04/26 12:01:54;;;;;;;;;;;;;;;19.27;37.76;99391.94;5060777;28;19927;-82
2023/04/26 12:04:26;;;;;;;;;;;;;;;19.38;37.27;99394.03;5061670;28;19925;-88
2023/04/26 12:06:52;;;;;;;;;;;;;;;19.45;36.28;99389.50;5068890;28;19924;-88
2023/04/26 12:09:21;;;;;;;;;;;;;;;19.59;35.32;99385.84;5059502;28;19921;-80
2023/04/26 12:11:49;;;;;;;;;;;;;;;19.78;34.46;99379.69;5058650;28;19929;-82
2023/04/26 12:14:17;;;;;;;;;;;;;;;19.96;33.17;99377.22;5066519;28;19932;-87
2023/04/26 12:16:43;;;;;;;;;;;;;;;20.14;33.33;99378.44;5052808;28;19932;-90
2023/04/26 12:19:10;;;;;;;;;;;;;;;20.23;32.42;99374.47;5066440;28;20019;-84
2023/04/26 12:21:41;;;;;;;;;;;;;;;20.37;31.85;99384.19;5061256;28;19916;-84
2023/04/26 12:24:18;;;;;;;;;;;;;;;20.38;30.77;99375.13;5063363;28;19928;-82
2023/04/26 12:26:43;;;;;;;;;;;;;;;20.46;31.41;99372.19;5062912;28;20525;-84
2023/04/26 12:29:09;;;;;;;;;;;;;;;20.64;31.20;99369.66;5063122;28;19924;-87
2023/04/26 12:31:34;;;;;;;;;;;;;;;20.80;31.58;99363.81;5065419;28;19995;-83
2023/04/26 12:34:00;;;;;;;;;;;;;;;20.87;30.53;99360.28;5061085;28;20413;-82
2023/04/26 12:36:27;;;;;;;;;;;;;;;20.89;30.80;99356.34;5060805;28;19920;-82
2023/04/26 12:38:52;;;;;;;;;;;;;;;20.99;31.33;99354.03;5063977;28;20261;-88
2023/04/26 12:41:17;;;;;;;;;;;;;;;21.09;30.62;99362.41;5059488;28;19931;-90